logo
Search for airport 
image banner adimage banner adimage banner ad
image banner ad

SBPJ - Brigadeiro Lysias Rodrigues

Located in Palmas, Brazil

ICAO - SBPJ, IATA - PMW

Data provided by Airmate  

General information

Coordinates: S10°17'24" W48°21'28"
Elevation is 774 feet MSL.
Magnetic variation is -21.516666667° East
View others Airports in Tocatins

Operational data

Special qualification required
Current time UTC:
Current local time:
Weather
METAR: SBPJ 240600Z 00000KT CAVOK 23/20 Q1013
TAF: TAF SBPJ 240300Z 2406/2506 10007KT 9999 FEW030 TN23/2409Z TX32/2418Z RMK PHN
View NOTAMs / SUP AIP / TFR affecting this airport [VIEW]
Communications frequencies: [VIEW]

Runways:

RWY identifierQFULength (ft)Width (ft)SurfaceLDA (ft)
14124°8596919ASPH
32304°8596919ASPH

Airport contact information

Address: Palmas Brazil

Satellite view of SBPJ